sensor_id;sensor_type;location;lat;lon;timestamp;P1;durP1;ratioP1;P2;durP2;ratioP2
30635;SDS011;17400;52.392;9.750;2023-10-19T00:00:32;14.68;;;8.80;;
30635;SDS011;17400;52.392;9.750;2023-10-19T00:03:02;13.73;;;8.60;;
30635;SDS011;17400;52.392;9.750;2023-10-19T00:05:30;15.18;;;10.73;;
30635;SDS011;17400;52.392;9.750;2023-10-19T00:07:59;16.58;;;10.65;;
30635;SDS011;17400;52.392;9.750;2023-10-19T00:10:27;15.25;;;10.85;;
30635;SDS011;17400;52.392;9.750;2023-10-19T00:13:03;16.30;;;10.93;;
30635;SDS011;17400;52.392;9.750;2023-10-19T00:15:31;13.27;;;8.57;;
30635;SDS011;17400;52.392;9.750;2023-10-19T00:18:01;16.55;;;10.20;;
30635;SDS011;17400;52.392;9.750;2023-10-19T00:20:47;16.30;;;10.35;;
30635;SDS011;17400;52.392;9.750;2023-10-19T00:23:19;16.05;;;10.90;;
30635;SDS011;17400;52.392;9.750;2023-10-19T00:25:59;17.33;;;11.18;;
30635;SDS011;17400;52.392;9.750;2023-10-19T00:28:36;16.13;;;10.13;;
30635;SDS011;17400;52.392;9.750;2023-10-19T00:31:05;16.10;;;10.90;;
30635;SDS011;17400;52.392;9.750;2023-10-19T00:33:34;16.35;;;10.68;;
30635;SDS011;17400;52.392;9.750;2023-10-19T00:36:06;17.17;;;11.77;;
30635;SDS011;17400;52.392;9.750;2023-10-19T00:38:35;13.63;;;9.32;;
30635;SDS011;17400;52.392;9.750;2023-10-19T00:41:15;21.38;;;13.00;;
30635;SDS011;17400;52.392;9.750;2023-10-19T00:43:49;20.42;;;11.57;;
30635;SDS011;17400;52.392;9.750;2023-10-19T00:46:24;19.33;;;12.38;;
30635;SDS011;17400;52.392;9.750;2023-10-19T00:48:59;16.10;;;10.38;;
30635;SDS011;17400;52.392;9.750;2023-10-19T00:51:33;17.52;;;10.98;;
30635;SDS011;17400;52.392;9.750;2023-10-19T00:54:10;16.98;;;9.52;;
30635;SDS011;17400;52.392;9.750;2023-10-19T00:56:42;20.27;;;12.60;;
30635;SDS011;17400;52.392;9.750;2023-10-19T00:59:17;21.90;;;12.13;;
30635;SDS011;17400;52.392;9.750;2023-10-19T01:01:50;20.50;;;12.32;;
30635;SDS011;17400;52.392;9.750;2023-10-19T01:04:21;17.92;;;11.73;;
30635;SDS011;17400;52.392;9.750;2023-10-19T01:06:51;18.00;;;12.60;;
30635;SDS011;17400;52.392;9.750;2023-10-19T01:09:32;17.52;;;11.43;;
30635;SDS011;17400;52.392;9.750;2023-10-19T01:12:03;15.35;;;9.20;;
30635;SDS011;17400;52.392;9.750;2023-10-19T01:14:46;23.17;;;12.68;;
30635;SDS011;17400;52.392;9.750;2023-10-19T01:17:29;20.00;;;13.10;;
30635;SDS011;17400;52.392;9.750;2023-10-19T01:19:58;17.02;;;9.68;;
30635;SDS011;17400;52.392;9.750;2023-10-19T01:22:25;22.92;;;13.48;;
30635;SDS011;17400;52.392;9.750;2023-10-19T01:24:55;17.40;;;12.20;;
30635;SDS011;17400;52.392;9.750;2023-10-19T01:27:23;20.77;;;13.38;;
30635;SDS011;17400;52.392;9.750;2023-10-19T01:29:51;20.27;;;13.77;;
30635;SDS011;17400;52.392;9.750;2023-10-19T01:32:20;17.75;;;10.23;;
30635;SDS011;17400;52.392;9.750;2023-10-19T01:34:49;19.63;;;12.18;;
30635;SDS011;17400;52.392;9.750;2023-10-19T01:37:18;17.70;;;10.93;;
30635;SDS011;17400;52.392;9.750;2023-10-19T01:39:46;17.90;;;11.60;;
30635;SDS011;17400;52.392;9.750;2023-10-19T01:42:16;23.13;;;10.90;;
30635;SDS011;17400;52.392;9.750;2023-10-19T01:44:44;20.80;;;12.98;;
30635;SDS011;17400;52.392;9.750;2023-10-19T01:47:12;18.42;;;11.55;;
30635;SDS011;17400;52.392;9.750;2023-10-19T01:49:39;21.42;;;13.00;;
30635;SDS011;17400;52.392;9.750;2023-10-19T01:52:07;17.88;;;11.68;;
30635;SDS011;17400;52.392;9.750;2023-10-19T01:54:36;21.55;;;12.68;;
30635;SDS011;17400;52.392;9.750;2023-10-19T01:57:05;22.75;;;13.15;;
30635;SDS011;17400;52.392;9.750;2023-10-19T01:59:36;21.52;;;11.68;;
30635;SDS011;17400;52.392;9.750;2023-10-19T02:02:04;22.20;;;12.63;;
30635;SDS011;17400;52.392;9.750;2023-10-19T02:04:31;19.88;;;11.02;;
30635;SDS011;17400;52.392;9.750;2023-10-19T02:07:03;22.50;;;11.93;;
30635;SDS011;17400;52.392;9.750;2023-10-19T02:09:30;20.85;;;12.02;;
30635;SDS011;17400;52.392;9.750;2023-10-19T02:12:00;18.63;;;10.07;;
30635;SDS011;17400;52.392;9.750;2023-10-19T02:14:28;17.98;;;11.05;;
30635;SDS011;17400;52.392;9.750;2023-10-19T02:16:59;19.45;;;11.75;;
30635;SDS011;17400;52.392;9.750;2023-10-19T02:19:28;17.27;;;9.30;;
30635;SDS011;17400;52.392;9.750;2023-10-19T02:21:57;21.13;;;12.75;;
30635;SDS011;17400;52.392;9.750;2023-10-19T02:24:26;21.35;;;13.63;;
30635;SDS011;17400;52.392;9.750;2023-10-19T02:26:54;20.83;;;12.23;;
30635;SDS011;17400;52.392;9.750;2023-10-19T02:29:24;18.38;;;10.38;;
30635;SDS011;17400;52.392;9.750;2023-10-19T02:31:52;19.95;;;12.05;;
30635;SDS011;17400;52.392;9.750;2023-10-19T02:34:23;19.45;;;12.48;;
30635;SDS011;17400;52.392;9.750;2023-10-19T02:36:50;19.05;;;12.25;;
30635;SDS011;17400;52.392;9.750;2023-10-19T02:39:18;19.98;;;9.73;;
30635;SDS011;17400;52.392;9.750;2023-10-19T02:41:45;17.98;;;10.77;;
30635;SDS011;17400;52.392;9.750;2023-10-19T02:44:18;24.98;;;12.75;;
30635;SDS011;17400;52.392;9.750;2023-10-19T02:46:48;20.27;;;12.07;;
30635;SDS011;17400;52.392;9.750;2023-10-19T02:49:19;19.67;;;11.88;;
30635;SDS011;17400;52.392;9.750;2023-10-19T02:51:50;20.70;;;13.90;;
30635;SDS011;17400;52.392;9.750;2023-10-19T02:54:19;20.50;;;12.40;;
30635;SDS011;17400;52.392;9.750;2023-10-19T02:56:49;19.77;;;10.95;;
30635;SDS011;17400;52.392;9.750;2023-10-19T02:59:18;21.85;;;12.50;;
30635;SDS011;17400;52.392;9.750;2023-10-19T03:01:49;22.10;;;14.00;;
30635;SDS011;17400;52.392;9.750;2023-10-19T03:04:18;23.55;;;13.15;;
30635;SDS011;17400;52.392;9.750;2023-10-19T03:06:47;19.50;;;11.75;;
30635;SDS011;17400;52.392;9.750;2023-10-19T03:09:17;22.70;;;13.25;;
30635;SDS011;17400;52.392;9.750;2023-10-19T03:11:49;16.65;;;11.52;;
30635;SDS011;17400;52.392;9.750;2023-10-19T03:14:19;22.85;;;13.05;;
30635;SDS011;17400;52.392;9.750;2023-10-19T03:16:47;20.13;;;12.77;;
30635;SDS011;17400;52.392;9.750;2023-10-19T03:19:16;16.80;;;11.95;;
30635;SDS011;17400;52.392;9.750;2023-10-19T03:21:43;21.60;;;14.13;;
30635;SDS011;17400;52.392;9.750;2023-10-19T03:24:15;24.52;;;13.43;;
30635;SDS011;17400;52.392;9.750;2023-10-19T03:26:51;24.10;;;12.77;;
30635;SDS011;17400;52.392;9.750;2023-10-19T03:29:21;22.05;;;14.25;;
30635;SDS011;17400;52.392;9.750;2023-10-19T03:31:58;21.17;;;13.65;;
30635;SDS011;17400;52.392;9.750;2023-10-19T03:34:26;21.13;;;12.65;;
30635;SDS011;17400;52.392;9.750;2023-10-19T03:36:58;18.55;;;11.27;;
30635;SDS011;17400;52.392;9.750;2023-10-19T03:39:32;22.55;;;11.75;;
30635;SDS011;17400;52.392;9.750;2023-10-19T03:42:03;17.67;;;10.60;;
30635;SDS011;17400;52.392;9.750;2023-10-19T03:44:32;22.67;;;13.18;;
30635;SDS011;17400;52.392;9.750;2023-10-19T03:47:11;21.13;;;12.20;;
30635;SDS011;17400;52.392;9.750;2023-10-19T03:49:41;22.15;;;11.65;;
30635;SDS011;17400;52.392;9.750;2023-10-19T03:52:10;19.63;;;12.40;;
30635;SDS011;17400;52.392;9.750;2023-10-19T03:54:47;20.45;;;11.25;;
30635;SDS011;17400;52.392;9.750;2023-10-19T03:57:19;19.15;;;12.68;;
30635;SDS011;17400;52.392;9.750;2023-10-19T03:59:50;19.83;;;12.90;;
30635;SDS011;17400;52.392;9.750;2023-10-19T04:02:23;23.30;;;10.10;;
30635;SDS011;17400;52.392;9.750;2023-10-19T04:04:51;20.92;;;14.25;;
30635;SDS011;17400;52.392;9.750;2023-10-19T04:07:22;21.45;;;12.23;;
30635;SDS011;17400;52.392;9.750;2023-10-19T04:09:52;24.98;;;14.88;;
30635;SDS011;17400;52.392;9.750;2023-10-19T04:12:28;18.88;;;11.45;;
30635;SDS011;17400;52.392;9.750;2023-10-19T04:14:58;22.58;;;14.63;;
30635;SDS011;17400;52.392;9.750;2023-10-19T04:17:36;18.77;;;11.15;;
30635;SDS011;17400;52.392;9.750;2023-10-19T04:20:05;20.40;;;11.05;;
30635;SDS011;17400;52.392;9.750;2023-10-19T04:22:55;19.80;;;11.30;;
30635;SDS011;17400;52.392;9.750;2023-10-19T04:25:24;23.05;;;12.15;;
30635;SDS011;17400;52.392;9.750;2023-10-19T04:27:55;21.13;;;11.45;;
30635;SDS011;17400;52.392;9.750;2023-10-19T04:30:24;16.23;;;10.52;;
30635;SDS011;17400;52.392;9.750;2023-10-19T04:32:53;19.58;;;11.52;;
30635;SDS011;17400;52.392;9.750;2023-10-19T04:35:24;18.52;;;10.85;;
30635;SDS011;17400;52.392;9.750;2023-10-19T04:37:57;18.55;;;11.25;;
30635;SDS011;17400;52.392;9.750;2023-10-19T04:40:25;18.58;;;11.00;;
30635;SDS011;17400;52.392;9.750;2023-10-19T04:42:54;23.05;;;11.48;;
30635;SDS011;17400;52.392;9.750;2023-10-19T04:45:23;20.08;;;13.18;;
30635;SDS011;17400;52.392;9.750;2023-10-19T04:47:51;19.95;;;13.38;;
30635;SDS011;17400;52.392;9.750;2023-10-19T04:50:21;17.70;;;11.20;;
30635;SDS011;17400;52.392;9.750;2023-10-19T04:52:50;19.65;;;11.15;;
30635;SDS011;17400;52.392;9.750;2023-10-19T04:55:18;22.10;;;11.15;;
30635;SDS011;17400;52.392;9.750;2023-10-19T04:57:46;18.95;;;10.68;;
30635;SDS011;17400;52.392;9.750;2023-10-19T05:00:16;17.80;;;10.98;;
30635;SDS011;17400;52.392;9.750;2023-10-19T05:02:47;16.40;;;11.73;;
30635;SDS011;17400;52.392;9.750;2023-10-19T05:05:16;15.40;;;11.35;;
30635;SDS011;17400;52.392;9.750;2023-10-19T05:07:44;16.83;;;10.00;;
30635;SDS011;17400;52.392;9.750;2023-10-19T05:10:12;15.70;;;8.43;;
30635;SDS011;17400;52.392;9.750;2023-10-19T05:12:40;14.98;;;9.48;;
30635;SDS011;17400;52.392;9.750;2023-10-19T05:15:09;15.75;;;10.48;;
30635;SDS011;17400;52.392;9.750;2023-10-19T05:17:38;14.88;;;9.38;;
30635;SDS011;17400;52.392;9.750;2023-10-19T05:20:07;15.15;;;8.50;;
30635;SDS011;17400;52.392;9.750;2023-10-19T05:22:35;12.45;;;9.00;;
30635;SDS011;17400;52.392;9.750;2023-10-19T05:25:03;16.67;;;9.90;;
30635;SDS011;17400;52.392;9.750;2023-10-19T05:27:34;17.77;;;9.02;;
30635;SDS011;17400;52.392;9.750;2023-10-19T05:30:02;13.05;;;7.75;;
30635;SDS011;17400;52.392;9.750;2023-10-19T05:32:36;15.75;;;7.65;;
30635;SDS011;17400;52.392;9.750;2023-10-19T05:35:06;12.02;;;7.65;;
30635;SDS011;17400;52.392;9.750;2023-10-19T05:37:34;16.20;;;8.73;;
30635;SDS011;17400;52.392;9.750;2023-10-19T05:40:03;13.05;;;8.07;;
30635;SDS011;17400;52.392;9.750;2023-10-19T05:42:31;12.07;;;7.45;;
30635;SDS011;17400;52.392;9.750;2023-10-19T05:45:01;14.13;;;7.95;;
30635;SDS011;17400;52.392;9.750;2023-10-19T05:47:31;12.55;;;7.40;;
30635;SDS011;17400;52.392;9.750;2023-10-19T05:50:00;14.65;;;9.05;;
30635;SDS011;17400;52.392;9.750;2023-10-19T05:52:29;9.30;;;6.00;;
30635;SDS011;17400;52.392;9.750;2023-10-19T05:54:57;13.90;;;8.68;;
30635;SDS011;17400;52.392;9.750;2023-10-19T05:57:26;11.77;;;7.70;;
30635;SDS011;17400;52.392;9.750;2023-10-19T05:59:55;10.68;;;6.75;;
30635;SDS011;17400;52.392;9.750;2023-10-19T06:02:22;13.05;;;7.78;;
30635;SDS011;17400;52.392;9.750;2023-10-19T06:04:58;10.13;;;6.25;;
30635;SDS011;17400;52.392;9.750;2023-10-19T06:07:27;10.68;;;6.60;;
30635;SDS011;17400;52.392;9.750;2023-10-19T06:09:56;12.18;;;6.15;;
30635;SDS011;17400;52.392;9.750;2023-10-19T06:12:27;9.90;;;6.20;;
30635;SDS011;17400;52.392;9.750;2023-10-19T06:14:55;9.95;;;7.15;;
30635;SDS011;17400;52.392;9.750;2023-10-19T06:17:23;10.27;;;7.25;;
30635;SDS011;17400;52.392;9.750;2023-10-19T06:19:51;10.50;;;8.07;;
30635;SDS011;17400;52.392;9.750;2023-10-19T06:22:21;11.23;;;7.13;;
30635;SDS011;17400;52.392;9.750;2023-10-19T06:24:49;11.32;;;6.60;;
30635;SDS011;17400;52.392;9.750;2023-10-19T06:27:19;10.40;;;6.85;;
30635;SDS011;17400;52.392;9.750;2023-10-19T06:29:47;10.82;;;6.43;;
30635;SDS011;17400;52.392;9.750;2023-10-19T06:32:18;11.88;;;6.40;;
30635;SDS011;17400;52.392;9.750;2023-10-19T06:34:46;9.70;;;6.20;;
30635;SDS011;17400;52.392;9.750;2023-10-19T06:37:14;12.57;;;8.18;;
30635;SDS011;17400;52.392;9.750;2023-10-19T06:39:42;10.85;;;6.95;;
30635;SDS011;17400;52.392;9.750;2023-10-19T06:42:11;9.82;;;6.63;;
30635;SDS011;17400;52.392;9.750;2023-10-19T06:44:42;11.57;;;7.43;;
30635;SDS011;17400;52.392;9.750;2023-10-19T06:47:11;11.35;;;7.10;;
30635;SDS011;17400;52.392;9.750;2023-10-19T06:49:40;11.07;;;8.15;;
30635;SDS011;17400;52.392;9.750;2023-10-19T06:52:08;10.32;;;5.93;;
30635;SDS011;17400;52.392;9.750;2023-10-19T06:54:38;11.50;;;7.32;;
30635;SDS011;17400;52.392;9.750;2023-10-19T06:57:06;8.75;;;5.50;;
30635;SDS011;17400;52.392;9.750;2023-10-19T06:59:35;10.98;;;5.65;;
30635;SDS011;17400;52.392;9.750;2023-10-19T07:02:05;8.98;;;5.75;;
30635;SDS011;17400;52.392;9.750;2023-10-19T07:04:34;10.70;;;5.85;;
30635;SDS011;17400;52.392;9.750;2023-10-19T07:07:03;9.02;;;6.32;;
30635;SDS011;17400;52.392;9.750;2023-10-19T07:09:31;9.95;;;6.78;;
30635;SDS011;17400;52.392;9.750;2023-10-19T07:12:01;9.82;;;6.00;;
30635;SDS011;17400;52.392;9.750;2023-10-19T07:14:29;9.25;;;6.05;;
30635;SDS011;17400;52.392;9.750;2023-10-19T07:16:57;8.63;;;5.10;;
30635;SDS011;17400;52.392;9.750;2023-10-19T07:19:27;8.48;;;5.75;;
30635;SDS011;17400;52.392;9.750;2023-10-19T07:21:56;12.98;;;6.57;;
30635;SDS011;17400;52.392;9.750;2023-10-19T07:24:25;8.63;;;5.63;;
30635;SDS011;17400;52.392;9.750;2023-10-19T07:26:53;9.10;;;5.80;;
30635;SDS011;17400;52.392;9.750;2023-10-19T07:29:31;7.75;;;4.47;;
30635;SDS011;17400;52.392;9.750;2023-10-19T07:32:00;8.25;;;4.95;;
30635;SDS011;17400;52.392;9.750;2023-10-19T07:34:32;7.10;;;4.40;;
30635;SDS011;17400;52.392;9.750;2023-10-19T07:37:01;8.82;;;5.28;;
30635;SDS011;17400;52.392;9.750;2023-10-19T07:39:30;6.88;;;4.20;;
30635;SDS011;17400;52.392;9.750;2023-10-19T07:42:00;6.82;;;4.38;;
30635;SDS011;17400;52.392;9.750;2023-10-19T07:44:31;10.77;;;6.18;;
30635;SDS011;17400;52.392;9.750;2023-10-19T07:46:59;7.50;;;4.72;;
30635;SDS011;17400;52.392;9.750;2023-10-19T07:49:27;6.63;;;4.72;;
30635;SDS011;17400;52.392;9.750;2023-10-19T07:51:57;7.20;;;4.85;;
30635;SDS011;17400;52.392;9.750;2023-10-19T07:54:25;7.45;;;4.10;;
30635;SDS011;17400;52.392;9.750;2023-10-19T07:56:54;7.40;;;3.78;;
30635;SDS011;17400;52.392;9.750;2023-10-19T07:59:24;6.60;;;4.50;;
30635;SDS011;17400;52.392;9.750;2023-10-19T08:01:52;6.55;;;4.40;;
30635;SDS011;17400;52.392;9.750;2023-10-19T08:04:20;6.93;;;4.85;;
30635;SDS011;17400;52.392;9.750;2023-10-19T08:06:48;7.15;;;4.53;;
30635;SDS011;17400;52.392;9.750;2023-10-19T08:09:17;6.10;;;3.67;;
30635;SDS011;17400;52.392;9.750;2023-10-19T08:11:49;6.25;;;3.45;;
30635;SDS011;17400;52.392;9.750;2023-10-19T08:14:22;6.72;;;4.32;;
30635;SDS011;17400;52.392;9.750;2023-10-19T08:16:51;5.35;;;3.63;;
30635;SDS011;17400;52.392;9.750;2023-10-19T08:19:19;5.45;;;4.05;;
30635;SDS011;17400;52.392;9.750;2023-10-19T08:21:48;6.05;;;4.05;;
30635;SDS011;17400;52.392;9.750;2023-10-19T08:24:16;6.00;;;4.22;;
30635;SDS011;17400;52.392;9.750;2023-10-19T08:26:45;6.07;;;3.67;;
30635;SDS011;17400;52.392;9.750;2023-10-19T08:29:13;5.90;;;3.20;;
30635;SDS011;17400;52.392;9.750;2023-10-19T08:31:42;6.00;;;3.47;;
30635;SDS011;17400;52.392;9.750;2023-10-19T08:34:11;5.65;;;3.13;;
30635;SDS011;17400;52.392;9.750;2023-10-19T08:36:39;4.72;;;3.35;;
30635;SDS011;17400;52.392;9.750;2023-10-19T08:39:09;5.43;;;2.92;;
30635;SDS011;17400;52.392;9.750;2023-10-19T08:41:41;6.60;;;3.80;;
30635;SDS011;17400;52.392;9.750;2023-10-19T08:44:09;6.10;;;4.15;;
30635;SDS011;17400;52.392;9.750;2023-10-19T08:46:39;5.57;;;3.67;;
30635;SDS011;17400;52.392;9.750;2023-10-19T08:49:10;8.57;;;4.45;;
30635;SDS011;17400;52.392;9.750;2023-10-19T08:51:39;6.00;;;3.90;;
30635;SDS011;17400;52.392;9.750;2023-10-19T08:54:11;8.38;;;5.93;;
30635;SDS011;17400;52.392;9.750;2023-10-19T08:56:41;8.25;;;4.40;;
30635;SDS011;17400;52.392;9.750;2023-10-19T08:59:11;7.57;;;4.47;;
30635;SDS011;17400;52.392;9.750;2023-10-19T09:01:39;6.35;;;4.63;;
30635;SDS011;17400;52.392;9.750;2023-10-19T09:04:08;9.32;;;5.70;;
30635;SDS011;17400;52.392;9.750;2023-10-19T09:06:37;7.80;;;4.72;;
30635;SDS011;17400;52.392;9.750;2023-10-19T09:09:09;6.18;;;3.95;;
30635;SDS011;17400;52.392;9.750;2023-10-19T09:11:44;7.00;;;4.70;;
30635;SDS011;17400;52.392;9.750;2023-10-19T09:14:12;6.47;;;4.50;;
30635;SDS011;17400;52.392;9.750;2023-10-19T09:16:52;6.38;;;4.45;;
30635;SDS011;17400;52.392;9.750;2023-10-19T09:19:34;6.13;;;4.15;;
30635;SDS011;17400;52.392;9.750;2023-10-19T09:22:07;6.28;;;3.85;;
30635;SDS011;17400;52.392;9.750;2023-10-19T09:24:43;8.40;;;4.85;;
30635;SDS011;17400;52.392;9.750;2023-10-19T09:27:13;6.85;;;4.20;;
30635;SDS011;17400;52.392;9.750;2023-10-19T09:29:43;7.68;;;4.47;;
30635;SDS011;17400;52.392;9.750;2023-10-19T09:32:11;7.47;;;3.72;;
30635;SDS011;17400;52.392;9.750;2023-10-19T09:34:41;6.38;;;4.35;;
30635;SDS011;17400;52.392;9.750;2023-10-19T09:37:11;10.35;;;5.75;;
30635;SDS011;17400;52.392;9.750;2023-10-19T09:39:39;7.97;;;4.50;;
30635;SDS011;17400;52.392;9.750;2023-10-19T09:42:10;8.65;;;5.38;;
30635;SDS011;17400;52.392;9.750;2023-10-19T09:44:44;5.85;;;4.65;;
30635;SDS011;17400;52.392;9.750;2023-10-19T09:47:14;11.93;;;6.47;;
30635;SDS011;17400;52.392;9.750;2023-10-19T09:49:48;8.52;;;4.78;;
30635;SDS011;17400;52.392;9.750;2023-10-19T09:52:16;8.38;;;5.30;;
30635;SDS011;17400;52.392;9.750;2023-10-19T09:54:48;7.53;;;4.05;;
30635;SDS011;17400;52.392;9.750;2023-10-19T09:57:24;8.35;;;4.32;;
30635;SDS011;17400;52.392;9.750;2023-10-19T10:00:02;8.02;;;5.10;;
30635;SDS011;17400;52.392;9.750;2023-10-19T10:02:38;7.43;;;5.78;;
30635;SDS011;17400;52.392;9.750;2023-10-19T10:10:57;8.20;;;5.93;;
30635;SDS011;17400;52.392;9.750;2023-10-19T10:16:19;8.13;;;4.75;;
30635;SDS011;17400;52.392;9.750;2023-10-19T10:18:51;11.00;;;6.38;;
30635;SDS011;17400;52.392;9.750;2023-10-19T10:21:25;8.65;;;5.07;;
30635;SDS011;17400;52.392;9.750;2023-10-19T10:23:55;10.85;;;5.88;;
30635;SDS011;17400;52.392;9.750;2023-10-19T10:26:26;9.07;;;6.13;;
30635;SDS011;17400;52.392;9.750;2023-10-19T10:29:07;8.50;;;5.50;;
30635;SDS011;17400;52.392;9.750;2023-10-19T10:31:43;10.35;;;5.30;;
30635;SDS011;17400;52.392;9.750;2023-10-19T10:37:11;7.32;;;5.15;;
30635;SDS011;17400;52.392;9.750;2023-10-19T10:39:41;8.00;;;5.38;;
30635;SDS011;17400;52.392;9.750;2023-10-19T10:42:12;7.50;;;4.60;;
30635;SDS011;17400;52.392;9.750;2023-10-19T10:44:41;8.25;;;5.13;;
30635;SDS011;17400;52.392;9.750;2023-10-19T10:47:15;8.85;;;5.72;;
30635;SDS011;17400;52.392;9.750;2023-10-19T10:49:48;7.82;;;4.93;;
30635;SDS011;17400;52.392;9.750;2023-10-19T10:52:24;10.98;;;6.13;;
30635;SDS011;17400;52.392;9.750;2023-10-19T10:54:53;9.10;;;5.45;;
30635;SDS011;17400;52.392;9.750;2023-10-19T10:57:21;11.40;;;5.82;;
30635;SDS011;17400;52.392;9.750;2023-10-19T11:00:00;7.68;;;4.72;;
30635;SDS011;17400;52.392;9.750;2023-10-19T11:02:32;8.73;;;5.72;;
30635;SDS011;17400;52.392;9.750;2023-10-19T11:05:00;10.00;;;5.68;;
30635;SDS011;17400;52.392;9.750;2023-10-19T11:07:29;7.50;;;4.65;;
30635;SDS011;17400;52.392;9.750;2023-10-19T11:09:58;8.40;;;4.10;;
30635;SDS011;17400;52.392;9.750;2023-10-19T11:12:28;7.88;;;5.00;;
30635;SDS011;17400;52.392;9.750;2023-10-19T11:14:56;6.88;;;5.18;;
30635;SDS011;17400;52.392;9.750;2023-10-19T11:17:26;7.72;;;5.20;;
30635;SDS011;17400;52.392;9.750;2023-10-19T11:19:59;8.05;;;4.95;;
30635;SDS011;17400;52.392;9.750;2023-10-19T11:22:27;6.63;;;4.18;;
30635;SDS011;17400;52.392;9.750;2023-10-19T11:24:55;9.20;;;5.68;;
30635;SDS011;17400;52.392;9.750;2023-10-19T11:27:43;9.25;;;5.57;;
30635;SDS011;17400;52.392;9.750;2023-10-19T11:30:11;7.93;;;4.88;;
30635;SDS011;17400;52.392;9.750;2023-10-19T11:32:40;6.97;;;4.05;;
30635;SDS011;17400;52.392;9.750;2023-10-19T11:35:10;8.32;;;5.03;;
30635;SDS011;17400;52.392;9.750;2023-10-19T11:37:45;9.93;;;4.47;;
30635;SDS011;17400;52.392;9.750;2023-10-19T11:40:14;7.28;;;5.00;;
30635;SDS011;17400;52.392;9.750;2023-10-19T11:42:42;8.27;;;6.53;;
30635;SDS011;17400;52.392;9.750;2023-10-19T11:45:10;9.10;;;5.13;;
30635;SDS011;17400;52.392;9.750;2023-10-19T11:47:39;7.88;;;5.38;;
30635;SDS011;17400;52.392;9.750;2023-10-19T11:50:07;6.60;;;4.75;;
30635;SDS011;17400;52.392;9.750;2023-10-19T11:52:41;8.50;;;5.10;;
30635;SDS011;17400;52.392;9.750;2023-10-19T11:55:09;7.57;;;3.72;;
30635;SDS011;17400;52.392;9.750;2023-10-19T11:57:40;6.97;;;4.60;;
30635;SDS011;17400;52.392;9.750;2023-10-19T12:00:10;10.32;;;4.47;;
30635;SDS011;17400;52.392;9.750;2023-10-19T12:02:46;7.72;;;4.43;;
30635;SDS011;17400;52.392;9.750;2023-10-19T12:05:15;9.85;;;4.68;;
30635;SDS011;17400;52.392;9.750;2023-10-19T12:07:43;8.07;;;4.57;;
30635;SDS011;17400;52.392;9.750;2023-10-19T12:10:13;10.35;;;6.38;;
30635;SDS011;17400;52.392;9.750;2023-10-19T12:12:41;8.80;;;4.78;;
30635;SDS011;17400;52.392;9.750;2023-10-19T12:15:26;8.90;;;5.55;;
30635;SDS011;17400;52.392;9.750;2023-10-19T12:17:54;9.88;;;6.78;;
30635;SDS011;17400;52.392;9.750;2023-10-19T12:20:23;9.60;;;5.90;;
30635;SDS011;17400;52.392;9.750;2023-10-19T12:22:52;9.63;;;6.18;;
30635;SDS011;17400;52.392;9.750;2023-10-19T12:25:21;11.75;;;6.45;;
30635;SDS011;17400;52.392;9.750;2023-10-19T12:28:00;12.45;;;6.93;;
30635;SDS011;17400;52.392;9.750;2023-10-19T12:30:30;11.55;;;6.63;;
30635;SDS011;17400;52.392;9.750;2023-10-19T12:33:03;9.13;;;5.85;;
30635;SDS011;17400;52.392;9.750;2023-10-19T12:35:35;17.33;;;6.97;;
30635;SDS011;17400;52.392;9.750;2023-10-19T12:38:16;10.85;;;6.85;;
30635;SDS011;17400;52.392;9.750;2023-10-19T12:40:44;15.40;;;7.72;;
30635;SDS011;17400;52.392;9.750;2023-10-19T12:43:14;12.35;;;6.68;;
30635;SDS011;17400;52.392;9.750;2023-10-19T12:45:45;14.65;;;7.82;;
30635;SDS011;17400;52.392;9.750;2023-10-19T12:48:17;12.35;;;7.32;;
30635;SDS011;17400;52.392;9.750;2023-10-19T12:50:46;8.82;;;6.78;;
30635;SDS011;17400;52.392;9.750;2023-10-19T12:53:14;11.80;;;6.85;;
30635;SDS011;17400;52.392;9.750;2023-10-19T12:55:42;10.77;;;5.47;;
30635;SDS011;17400;52.392;9.750;2023-10-19T12:58:11;10.85;;;7.30;;
30635;SDS011;17400;52.392;9.750;2023-10-19T13:00:41;12.70;;;8.02;;
30635;SDS011;17400;52.392;9.750;2023-10-19T13:03:11;14.30;;;8.25;;
30635;SDS011;17400;52.392;9.750;2023-10-19T13:05:43;15.40;;;8.40;;
30635;SDS011;17400;52.392;9.750;2023-10-19T13:08:13;13.55;;;7.68;;
30635;SDS011;17400;52.392;9.750;2023-10-19T13:10:43;10.10;;;7.22;;
30635;SDS011;17400;52.392;9.750;2023-10-19T13:13:12;10.55;;;6.70;;
30635;SDS011;17400;52.392;9.750;2023-10-19T13:15:42;12.18;;;6.85;;
30635;SDS011;17400;52.392;9.750;2023-10-19T13:18:11;13.00;;;7.53;;
30635;SDS011;17400;52.392;9.750;2023-10-19T13:20:46;11.65;;;7.25;;
30635;SDS011;17400;52.392;9.750;2023-10-19T13:23:17;14.63;;;8.05;;
30635;SDS011;17400;52.392;9.750;2023-10-19T13:25:48;14.65;;;7.65;;
30635;SDS011;17400;52.392;9.750;2023-10-19T13:28:20;12.90;;;7.10;;
30635;SDS011;17400;52.392;9.750;2023-10-19T13:30:49;10.20;;;6.70;;
30635;SDS011;17400;52.392;9.750;2023-10-19T13:33:20;13.38;;;7.10;;
30635;SDS011;17400;52.392;9.750;2023-10-19T13:35:49;11.88;;;7.20;;
30635;SDS011;17400;52.392;9.750;2023-10-19T13:38:18;11.88;;;6.30;;
30635;SDS011;17400;52.392;9.750;2023-10-19T13:40:47;10.88;;;6.30;;
30635;SDS011;17400;52.392;9.750;2023-10-19T13:43:16;14.40;;;7.00;;
30635;SDS011;17400;52.392;9.750;2023-10-19T13:45:46;13.73;;;7.25;;
30635;SDS011;17400;52.392;9.750;2023-10-19T13:48:15;10.52;;;6.75;;
30635;SDS011;17400;52.392;9.750;2023-10-19T13:50:45;15.48;;;8.88;;
30635;SDS011;17400;52.392;9.750;2023-10-19T13:53:15;11.57;;;6.38;;
30635;SDS011;17400;52.392;9.750;2023-10-19T13:55:45;12.90;;;7.43;;
30635;SDS011;17400;52.392;9.750;2023-10-19T13:58:13;11.57;;;6.97;;
30635;SDS011;17400;52.392;9.750;2023-10-19T14:00:42;9.27;;;5.57;;
30635;SDS011;17400;52.392;9.750;2023-10-19T14:03:11;11.18;;;7.10;;
30635;SDS011;17400;52.392;9.750;2023-10-19T14:05:41;12.98;;;8.05;;
30635;SDS011;17400;52.392;9.750;2023-10-19T14:08:14;14.00;;;6.78;;
30635;SDS011;17400;52.392;9.750;2023-10-19T14:10:45;16.77;;;8.90;;
30635;SDS011;17400;52.392;9.750;2023-10-19T14:13:13;16.48;;;7.32;;
30635;SDS011;17400;52.392;9.750;2023-10-19T14:15:42;17.40;;;7.95;;
30635;SDS011;17400;52.392;9.750;2023-10-19T14:18:10;11.20;;;7.05;;
30635;SDS011;17400;52.392;9.750;2023-10-19T14:20:39;10.45;;;6.32;;
30635;SDS011;17400;52.392;9.750;2023-10-19T14:23:07;14.98;;;8.48;;
30635;SDS011;17400;52.392;9.750;2023-10-19T14:25:37;14.63;;;6.95;;
30635;SDS011;17400;52.392;9.750;2023-10-19T14:28:08;14.63;;;7.20;;
30635;SDS011;17400;52.392;9.750;2023-10-19T14:30:36;14.57;;;7.22;;
30635;SDS011;17400;52.392;9.750;2023-10-19T14:33:04;13.90;;;7.57;;
30635;SDS011;17400;52.392;9.750;2023-10-19T14:35:38;17.15;;;8.35;;
30635;SDS011;17400;52.392;9.750;2023-10-19T14:38:09;13.85;;;7.43;;
30635;SDS011;17400;52.392;9.750;2023-10-19T14:40:41;13.27;;;7.88;;
30635;SDS011;17400;52.392;9.750;2023-10-19T14:43:13;20.25;;;8.85;;
30635;SDS011;17400;52.392;9.750;2023-10-19T14:45:42;21.27;;;10.82;;
30635;SDS011;17400;52.392;9.750;2023-10-19T14:48:10;16.58;;;10.52;;
30635;SDS011;17400;52.392;9.750;2023-10-19T14:50:38;17.90;;;10.98;;
30635;SDS011;17400;52.392;9.750;2023-10-19T14:53:08;19.65;;;10.80;;
30635;SDS011;17400;52.392;9.750;2023-10-19T14:55:36;17.35;;;10.00;;
30635;SDS011;17400;52.392;9.750;2023-10-19T14:58:04;23.02;;;10.95;;
30635;SDS011;17400;52.392;9.750;2023-10-19T15:00:34;16.02;;;8.45;;
30635;SDS011;17400;52.392;9.750;2023-10-19T15:03:04;15.23;;;8.38;;